Seaspan Cavaler — CFN6639 — position and weather

sailwx.info

Track history (hours):
 
Tides and Currents Weather Stations Pressure Air Temp Water Temp Dewpoint Dewpoint Depression Visibility Wind Speed Wind Dir Waves Ship Positions

Seaspan Cavaler

Last reported at 2017-Dec-11 17:00 UTC. Time now 2017-Dec-14 14:58 UTC.
Position N 49°07' W 123°11'.

Length 24 m; draft 5.2 m.

Type: Towing. MMSI: 316003659.

Date/timePositionNaut miles runAvg speedWind from/ knotsBaromVisibWave heightAir tempDewpointWater temp
2017-Dec-11 17:00N 49°07' W 123°11'0 0.0
2017-Dec-11 16:30N 49°07' W 123°11'0 0.0
2017-Dec-11 15:57N 49°07' W 123°11'0 0.0
2017-Dec-11 15:29N 49°07' W 123°11'0 0.0
2017-Dec-11 14:57N 49°07' W 123°11'0 0.0
2017-Dec-11 14:30N 49°07' W 123°11'0 0.0
2017-Dec-11 13:59N 49°07' W 123°11'0 0.0
2017-Dec-11 13:30N 49°07' W 123°11'0 0.0
2017-Dec-11 12:59N 49°07' W 123°11'0 0.0
2017-Dec-11 12:24N 49°07' W 123°11'0 0.0
2017-Dec-11 11:59N 49°07' W 123°11'0 0.0
2017-Dec-11 11:28N 49°07' W 123°11'3 7.3
2017-Dec-11 11:00N 49°07' W 123°06'611.1
2017-Dec-11 10:30N 49°09' W 122°59'4 7.5
2017-Dec-11 10:00N 49°12' W 122°54'0 0.2
2017-Dec-11 09:30N 49°12' W 122°55'1 2.7
2017-Dec-11 09:00N 49°10' W 122°55'3 5.6
2017-Dec-11 08:31N 49°09' W 122°60'3 5.8
2017-Dec-11 08:00N 49°08' W 123°03'3 5.8
2017-Dec-11 07:30N 49°07' W 123°07'3 5.5
2017-Dec-11 07:00N 49°07' W 123°11'3 5.3
2017-Dec-11 06:30N 49°07' W 123°15'3 5.3
2017-Dec-11 06:00N 49°06' W 123°19'4 7.5
2017-Dec-11 05:30N 49°10' W 123°18'3 7.0
2017-Dec-11 05:00N 49°14' W 123°18'3 5.3
2017-Dec-11 04:30N 49°16' W 123°19'1 1.1
2017-Dec-11 04:00N 49°16' W 123°19'2 3.4
2017-Dec-11 03:30N 49°16' W 123°21'2 5.0
2017-Dec-11 03:01N 49°17' W 123°25'3 6.3
2017-Dec-11 02:30N 49°19' W 123°29'3 6.7
2017-Dec-11 02:00N 49°20' W 123°34'3 6.6
2017-Dec-11 01:30N 49°21' W 123°38'3 6.5
2017-Dec-11 01:00N 49°23' W 123°43'3 6.5
2017-Dec-11 00:30N 49°24' W 123°48'9 6.2
2017-Dec-10 23:07N 49°27' W 123°60'1 6.1
2017-Dec-10 23:00N 49°28' W 124°01'3 6.3
2017-Dec-10 22:30N 49°30' W 124°04'3 6.7
2017-Dec-10 22:00N 49°32' W 124°07'3 6.7
2017-Dec-10 21:31N 49°35' W 124°11'3 6.8
2017-Dec-10 21:01N 49°37' W 124°14'3 6.7
2017-Dec-10 20:31N 49°40' W 124°18'3 6.3
2017-Dec-10 20:01N 49°42' W 124°20'3 6.3
2017-Dec-10 19:30N 49°44' W 124°24'3 6.2
2017-Dec-10 19:01N 49°46' W 124°28'3 6.1
2017-Dec-10 18:30N 49°48' W 124°32'3 6.3
2017-Dec-10 18:00N 49°51' W 124°33'1 2.2
2017-Dec-10 17:31N 49°52' W 124°34'0 0.5
2017-Dec-10 17:00N 49°52' W 124°34'0 0.4
2017-Dec-10 16:30N 49°52' W 124°34'0 0.8
2017-Dec-10 16:00N 49°52' W 124°34'2 4.0
2017-Dec-10 15:30N 49°50' W 124°33'2 4.0
2017-Dec-10 15:00N 49°48' W 124°32'3 5.6
2017-Dec-10 14:31N 49°46' W 124°28'3 5.8
2017-Dec-10 14:01N 49°45' W 124°25'3 5.7
2017-Dec-10 13:31N 49°43' W 124°21'3 5.6
2017-Dec-10 13:00N 49°41' W 124°18'3 5.7
2017-Dec-10 12:30N 49°39' W 124°15'3 5.5
2017-Dec-10 12:00N 49°37' W 124°13'3 5.5
2017-Dec-10 11:29N 49°34' W 124°10'3 5.3
2017-Dec-10 10:59N 49°32' W 124°07'3 5.5
2017-Dec-10 10:30N 49°30' W 124°05'26 5.7
2017-Dec-10 05:53N 49°14' W 123°33'3 5.4
2017-Dec-10 05:24N 49°12' W 123°30'2 5.6
2017-Dec-10 04:58N 49°10' W 123°28'3 5.6
2017-Dec-10 04:28N 49°09' W 123°24'3 5.7
2017-Dec-10 04:00N 49°07' W 123°21'1 2.7
2017-Dec-10 03:30N 49°06' W 123°19'4 6.3
2017-Dec-10 02:53N 49°08' W 123°14'3 8.3
2017-Dec-10 02:30N 49°07' W 123°10'4 7.7
2017-Dec-10 02:00N 49°08' W 123°04'3 6.6
2017-Dec-10 01:31N 49°09' W 122°60'2 3.0
2017-Dec-10 00:58N 49°09' W 122°57'0 0.1
2017-Dec-09 23:39N 49°09' W 122°57'1 7.0
2017-Dec-09 23:30N 49°10' W 122°56'1 2.6
2017-Dec-09 23:00N 49°11' W 122°55'1 0.2
2017-Dec-09 20:08N 49°12' W 122°55'1 8.6
2017-Dec-09 20:01N 49°11' W 122°55'1 1.3
2017-Dec-09 19:30N 49°10' W 122°55'0 0.0
2017-Dec-09 19:00N 49°10' W 122°55'0 0.0
2017-Dec-09 18:30N 49°10' W 122°55'1 1.5
2017-Dec-09 18:00N 49°10' W 122°56'4 7.5
2017-Dec-09 17:31N 49°09' W 123°02'0 0.5
2017-Dec-09 17:00N 49°09' W 123°02'0 0.1
2017-Dec-09 16:30N 49°09' W 123°02'0 0.1
2017-Dec-09 16:00N 49°09' W 123°02'0 0.2
2017-Dec-09 15:30N 49°09' W 123°02'0 0.3
2017-Dec-09 15:00N 49°09' W 123°02'0 0.9
2017-Dec-09 14:30N 49°08' W 123°03'0 0.0
2017-Dec-09 14:00N 49°08' W 123°03'0 0.0
2017-Dec-09 13:30N 49°08' W 123°03'1 2.1
2017-Dec-09 13:00N 49°08' W 123°04'4 7.9
2017-Dec-09 12:30N 49°07' W 123°10'4 7.2
2017-Dec-09 12:01N 49°07' W 123°15'3 5.7
2017-Dec-09 11:30N 49°07' W 123°19'510.5
2017-Dec-09 11:01N 49°12' W 123°19'5 9.9
2017-Dec-09 10:30N 49°17' W 123°17'5 9.8
2017-Dec-09 10:00N 49°19' W 123°10'2 4.8
2017-Dec-09 09:31N 49°19' W 123°06'0 0.0
2017-Dec-09 09:00N 49°19' W 123°06'1 2.0
2017-Dec-09 08:30N 49°19' W 123°08'2 3.7
2017-Dec-09 08:01N 49°19' W 123°11'2 4.6
2017-Dec-09 07:31N 49°18' W 123°14'4 7.0
2017-Dec-09 07:00N 49°16' W 123°18'4 7.2
2017-Dec-09 06:30N 49°13' W 123°19'3 6.7
2017-Dec-09 06:00N 49°09' W 123°20'3 6.1
2017-Dec-09 05:30N 49°06' W 123°19'4 7.7
2017-Dec-09 04:57N 49°08' W 123°13'4 7.8
2017-Dec-09 04:30N 49°07' W 123°08'2 2.9
2017-Dec-09 03:53N 49°07' W 123°06'0 0.1
2017-Dec-09 03:26N 49°07' W 123°05'0 0.1
2017-Dec-09 02:55N 49°07' W 123°05'410.7
2017-Dec-09 02:30N 49°09' W 122°60'3 5.8
2017-Dec-09 02:01N 49°10' W 122°55'0 0.0
2017-Dec-09 01:30N 49°10' W 122°55'0 0.0
2017-Dec-09 01:00N 49°10' W 122°55'0 0.0
2017-Dec-09 00:30N 49°10' W 122°55'0 0.0
2017-Dec-09 00:00N 49°10' W 122°55'0 0.0
2017-Dec-08 23:31N 49°10' W 122°55'0 0.0
2017-Dec-08 23:01N 49°10' W 122°55'0 0.0
2017-Dec-08 22:30N 49°10' W 122°55'0 0.0
2017-Dec-08 22:01N 49°10' W 122°55'0 0.0
2017-Dec-08 21:31N 49°10' W 122°55'0 0.0
2017-Dec-08 21:01N 49°10' W 122°55'0 0.0
2017-Dec-08 20:30N 49°10' W 122°55'0 0.0
2017-Dec-08 20:01N 49°10' W 122°55'1 2.2
2017-Dec-08 19:30N 49°10' W 122°57'4 7.3
2017-Dec-08 19:00N 49°09' W 123°02'0 0.2
2017-Dec-08 18:30N 49°09' W 123°02'0 0.2
2017-Dec-08 18:00N 49°09' W 123°02'2 3.9
2017-Dec-08 17:31N 49°07' W 123°05'1 1.4
2017-Dec-08 17:01N 49°07' W 123°06'0 0.2
2017-Dec-08 16:22N 49°07' W 123°05'0 0.7
2017-Dec-08 16:01N 49°07' W 123°05'3 5.6
2017-Dec-08 15:30N 49°07' W 123°09'3 6.5
2017-Dec-08 15:00N 49°08' W 123°14'3 6.5
2017-Dec-08 14:31N 49°06' W 123°18'2 3.3
2017-Dec-08 14:00N 49°06' W 123°21'2 3.1
2017-Dec-08 13:31N 49°06' W 123°23'2 3.4
2017-Dec-08 12:54N 49°08' W 123°23'2 4.6
2017-Dec-08 12:31N 49°10' W 123°23'2 4.4
2017-Dec-08 12:01N 49°12' W 123°22'3 5.1
2017-Dec-08 11:31N 49°15' W 123°21'3 5.0
2017-Dec-08 11:00N 49°17' W 123°20'2 5.0
2017-Dec-08 10:30N 49°19' W 123°17'3 5.8
2017-Dec-08 10:00N 49°19' W 123°12'3 6.1
2017-Dec-08 09:30N 49°19' W 123°08'1 2.4
2017-Dec-08 09:00N 49°18' W 123°06'0 0.3
2017-Dec-08 08:31N 49°18' W 123°06'1 1.1
2017-Dec-08 08:01N 49°18' W 123°07'3 6.9
2017-Dec-08 07:31N 49°19' W 123°12'4 8.7
2017-Dec-08 07:00N 49°17' W 123°18'4 8.8
2017-Dec-08 06:31N 49°12' W 123°20'4 8.4
2017-Dec-08 06:00N 49°08' W 123°20'2 4.9
2017-Dec-08 05:30N 49°07' W 123°17'4 8.2
2017-Dec-08 05:01N 49°07' W 123°11'4 6.8
2017-Dec-08 04:29N 49°07' W 123°06'0 0.1
2017-Dec-08 04:01N 49°07' W 123°05'2 4.6
2017-Dec-08 03:30N 49°09' W 123°03'4 6.8
2017-Dec-08 02:56N 49°10' W 122°57'0 0.0
2017-Dec-08 02:30N 49°10' W 122°57'1 1.4
2017-Dec-08 02:00N 49°09' W 122°58'1 3.0
2017-Dec-08 01:31N 49°09' W 123°00'1 2.7
2017-Dec-08 01:00N 49°09' W 123°02'2 3.4
2017-Dec-08 00:31N 49°08' W 123°04'2 3.0
2017-Dec-08 00:00N 49°07' W 123°06'2 3.1
2017-Dec-07 23:29N 49°06' W 123°08'1 2.9
2017-Dec-07 23:00N 49°07' W 123°10'1 2.7
2017-Dec-07 22:30N 49°07' W 123°12'2 3.2
2017-Dec-07 22:01N 49°08' W 123°15'3 4.9
2017-Dec-07 21:27N 49°06' W 123°18'4 7.6
2017-Dec-07 20:53N 49°06' W 123°25'2 4.3
2017-Dec-07 20:22N 49°08' W 123°26'2 4.2
2017-Dec-07 20:00N 49°10' W 123°27'2 4.0
2017-Dec-07 19:30N 49°12' W 123°27'2 3.4
2017-Dec-07 18:58N 49°14' W 123°27'2 4.2
2017-Dec-07 18:30N 49°16' W 123°27'2 4.7
2017-Dec-07 18:00N 49°18' W 123°27'2 4.6
2017-Dec-07 17:30N 49°20' W 123°27'4 4.5
2017-Dec-07 16:32N 49°24' W 123°26'0 4.7
2017-Dec-07 16:29N 49°25' W 123°26'2 4.5
2017-Dec-07 16:00N 49°26' W 123°28'2 4.6
2017-Dec-07 15:30N 49°29' W 123°28'3 4.9
2017-Dec-07 14:59N 49°31' W 123°29'0 0.0
2017-Dec-07 14:31N 49°31' W 123°29'0 0.0
2017-Dec-07 14:00N 49°31' W 123°29'0 0.0
2017-Dec-07 13:29N 49°31' W 123°29'0 0.0
2017-Dec-07 13:00N 49°31' W 123°29'0 0.0
2017-Dec-07 12:30N 49°31' W 123°29'0 0.0
2017-Dec-07 12:00N 49°31' W 123°29'0 0.0
2017-Dec-07 11:30N 49°31' W 123°29'0 0.6
2017-Dec-07 11:00N 49°31' W 123°29'2 3.3
2017-Dec-07 10:30N 49°29' W 123°28'3 5.1
2017-Dec-07 10:01N 49°27' W 123°27'2 4.8
2017-Dec-07 09:30N 49°25' W 123°26'2 4.2
2017-Dec-07 09:00N 49°23' W 123°26'3 6.5
2017-Dec-07 08:31N 49°19' W 123°27'4 7.0
2017-Dec-07 08:01N 49°16' W 123°27'3 6.7
2017-Dec-07 07:30N 49°13' W 123°27'3 6.0
2017-Dec-07 06:58N 49°10' W 123°24'3 6.1
2017-Dec-07 06:30N 49°08' W 123°21'2 4.0
2017-Dec-07 06:00N 49°06' W 123°19'4 8.7
2017-Dec-07 05:30N 49°08' W 123°13'5 9.1
2017-Dec-07 05:00N 49°07' W 123°06'4 8.5
2017-Dec-07 04:30N 49°09' W 123°01'3 5.7
2017-Dec-07 04:00N 49°10' W 122°57'0 0.1
2017-Dec-07 03:30N 49°10' W 122°57'0 0.0
2017-Dec-07 03:00N 49°10' W 122°57'0 0.0
2017-Dec-07 02:30N 49°10' W 122°57'0 0.0
2017-Dec-07 01:53N 49°10' W 122°57'0 0.0
2017-Dec-07 01:31N 49°10' W 122°57'1 1.3
2017-Dec-07 01:00N 49°09' W 122°58'2 3.2
2017-Dec-07 00:30N 49°09' W 123°00'3 5.6
2017-Dec-07 00:00N 49°08' W 123°04'3 5.4
2017-Dec-06 23:29N 49°06' W 123°08'2 5.1
2017-Dec-06 23:00N 49°07' W 123°11'2 4.8
2017-Dec-06 22:30N 49°08' W 123°15'3 5.6
2017-Dec-06 21:59N 49°06' W 123°19'3 6.1
2017-Dec-06 21:30N 49°05' W 123°23'4 6.4
2017-Dec-06 20:55N 49°03' W 123°28'  
Track history (hours):
 
Tides and Currents Weather Stations Pressure Air Temp Water Temp Dewpoint Dewpoint Depression Visibility Wind Speed Wind Dir Waves Ship Positions

Seaspan Cavaler

Last reported at 2017-Dec-11 17:00 UTC. Time now 2017-Dec-14 14:58 UTC.
Position N 49°07' W 123°11'.

Length 24 m; draft 5.2 m.

Type: Towing. MMSI: 316003659.

Date/timePositionNaut miles runAvg speedWind from/ knotsBaromVisibWave heightAir tempDewpointWater temp
2017-Dec-11 17:00N 49°07' W 123°11'0 0.0
2017-Dec-11 16:30N 49°07' W 123°11'0 0.0
2017-Dec-11 15:57N 49°07' W 123°11'0 0.0
2017-Dec-11 15:29N 49°07' W 123°11'0 0.0
2017-Dec-11 14:57N 49°07' W 123°11'0 0.0
2017-Dec-11 14:30N 49°07' W 123°11'0 0.0
2017-Dec-11 13:59N 49°07' W 123°11'0 0.0
2017-Dec-11 13:30N 49°07' W 123°11'0 0.0
2017-Dec-11 12:59N 49°07' W 123°11'0 0.0
2017-Dec-11 12:24N 49°07' W 123°11'0 0.0
2017-Dec-11 11:59N 49°07' W 123°11'0 0.0
2017-Dec-11 11:28N 49°07' W 123°11'3 7.3
2017-Dec-11 11:00N 49°07' W 123°06'611.1
2017-Dec-11 10:30N 49°09' W 122°59'4 7.5
2017-Dec-11 10:00N 49°12' W 122°54'0 0.2
2017-Dec-11 09:30N 49°12' W 122°55'1 2.7
2017-Dec-11 09:00N 49°10' W 122°55'3 5.6
2017-Dec-11 08:31N 49°09' W 122°60'3 5.8
2017-Dec-11 08:00N 49°08' W 123°03'3 5.8
2017-Dec-11 07:30N 49°07' W 123°07'3 5.5
2017-Dec-11 07:00N 49°07' W 123°11'3 5.3
2017-Dec-11 06:30N 49°07' W 123°15'3 5.3
2017-Dec-11 06:00N 49°06' W 123°19'4 7.5
2017-Dec-11 05:30N 49°10' W 123°18'3 7.0
2017-Dec-11 05:00N 49°14' W 123°18'3 5.3
2017-Dec-11 04:30N 49°16' W 123°19'1 1.1
2017-Dec-11 04:00N 49°16' W 123°19'2 3.4
2017-Dec-11 03:30N 49°16' W 123°21'2 5.0
2017-Dec-11 03:01N 49°17' W 123°25'3 6.3
2017-Dec-11 02:30N 49°19' W 123°29'3 6.7
2017-Dec-11 02:00N 49°20' W 123°34'3 6.6
2017-Dec-11 01:30N 49°21' W 123°38'3 6.5
2017-Dec-11 01:00N 49°23' W 123°43'3 6.5
2017-Dec-11 00:30N 49°24' W 123°48'9 6.2
2017-Dec-10 23:07N 49°27' W 123°60'1 6.1
2017-Dec-10 23:00N 49°28' W 124°01'3 6.3
2017-Dec-10 22:30N 49°30' W 124°04'3 6.7
2017-Dec-10 22:00N 49°32' W 124°07'3 6.7
2017-Dec-10 21:31N 49°35' W 124°11'3 6.8
2017-Dec-10 21:01N 49°37' W 124°14'3 6.7
2017-Dec-10 20:31N 49°40' W 124°18'3 6.3
2017-Dec-10 20:01N 49°42' W 124°20'3 6.3
2017-Dec-10 19:30N 49°44' W 124°24'3 6.2
2017-Dec-10 19:01N 49°46' W 124°28'3 6.1
2017-Dec-10 18:30N 49°48' W 124°32'3 6.3
2017-Dec-10 18:00N 49°51' W 124°33'1 2.2
2017-Dec-10 17:31N 49°52' W 124°34'0 0.5
2017-Dec-10 17:00N 49°52' W 124°34'0 0.4
2017-Dec-10 16:30N 49°52' W 124°34'0 0.8
2017-Dec-10 16:00N 49°52' W 124°34'2 4.0
2017-Dec-10 15:30N 49°50' W 124°33'2 4.0
2017-Dec-10 15:00N 49°48' W 124°32'3 5.6
2017-Dec-10 14:31N 49°46' W 124°28'3 5.8
2017-Dec-10 14:01N 49°45' W 124°25'3 5.7
2017-Dec-10 13:31N 49°43' W 124°21'3 5.6
2017-Dec-10 13:00N 49°41' W 124°18'3 5.7
2017-Dec-10 12:30N 49°39' W 124°15'3 5.5
2017-Dec-10 12:00N 49°37' W 124°13'3 5.5
2017-Dec-10 11:29N 49°34' W 124°10'3 5.3
2017-Dec-10 10:59N 49°32' W 124°07'3 5.5
2017-Dec-10 10:30N 49°30' W 124°05'26 5.7
2017-Dec-10 05:53N 49°14' W 123°33'3 5.4
2017-Dec-10 05:24N 49°12' W 123°30'2 5.6
2017-Dec-10 04:58N 49°10' W 123°28'3 5.6
2017-Dec-10 04:28N 49°09' W 123°24'3 5.7
2017-Dec-10 04:00N 49°07' W 123°21'1 2.7
2017-Dec-10 03:30N 49°06' W 123°19'4 6.3
2017-Dec-10 02:53N 49°08' W 123°14'3 8.3
2017-Dec-10 02:30N 49°07' W 123°10'4 7.7
2017-Dec-10 02:00N 49°08' W 123°04'3 6.6
2017-Dec-10 01:31N 49°09' W 122°60'2 3.0
2017-Dec-10 00:58N 49°09' W 122°57'0 0.1
2017-Dec-09 23:39N 49°09' W 122°57'1 7.0
2017-Dec-09 23:30N 49°10' W 122°56'1 2.6
2017-Dec-09 23:00N 49°11' W 122°55'1 0.2
2017-Dec-09 20:08N 49°12' W 122°55'1 8.6
2017-Dec-09 20:01N 49°11' W 122°55'1 1.3
2017-Dec-09 19:30N 49°10' W 122°55'0 0.0
2017-Dec-09 19:00N 49°10' W 122°55'0 0.0
2017-Dec-09 18:30N 49°10' W 122°55'1 1.5
2017-Dec-09 18:00N 49°10' W 122°56'4 7.5
2017-Dec-09 17:31N 49°09' W 123°02'0 0.5
2017-Dec-09 17:00N 49°09' W 123°02'0 0.1
2017-Dec-09 16:30N 49°09' W 123°02'0 0.1
2017-Dec-09 16:00N 49°09' W 123°02'0 0.2
2017-Dec-09 15:30N 49°09' W 123°02'0 0.3
2017-Dec-09 15:00N 49°09' W 123°02'0 0.9
2017-Dec-09 14:30N 49°08' W 123°03'0 0.0
2017-Dec-09 14:00N 49°08' W 123°03'0 0.0
2017-Dec-09 13:30N 49°08' W 123°03'1 2.1
2017-Dec-09 13:00N 49°08' W 123°04'4 7.9
2017-Dec-09 12:30N 49°07' W 123°10'4 7.2
2017-Dec-09 12:01N 49°07' W 123°15'3 5.7
2017-Dec-09 11:30N 49°07' W 123°19'510.5
2017-Dec-09 11:01N 49°12' W 123°19'5 9.9
2017-Dec-09 10:30N 49°17' W 123°17'5 9.8
2017-Dec-09 10:00N 49°19' W 123°10'2 4.8
2017-Dec-09 09:31N 49°19' W 123°06'0 0.0
2017-Dec-09 09:00N 49°19' W 123°06'1 2.0
2017-Dec-09 08:30N 49°19' W 123°08'2 3.7
2017-Dec-09 08:01N 49°19' W 123°11'2 4.6
2017-Dec-09 07:31N 49°18' W 123°14'4 7.0
2017-Dec-09 07:00N 49°16' W 123°18'4 7.2
2017-Dec-09 06:30N 49°13' W 123°19'3 6.7
2017-Dec-09 06:00N 49°09' W 123°20'3 6.1
2017-Dec-09 05:30N 49°06' W 123°19'4 7.7
2017-Dec-09 04:57N 49°08' W 123°13'4 7.8
2017-Dec-09 04:30N 49°07' W 123°08'2 2.9
2017-Dec-09 03:53N 49°07' W 123°06'0 0.1
2017-Dec-09 03:26N 49°07' W 123°05'0 0.1
2017-Dec-09 02:55N 49°07' W 123°05'410.7
2017-Dec-09 02:30N 49°09' W 122°60'3 5.8
2017-Dec-09 02:01N 49°10' W 122°55'0 0.0
2017-Dec-09 01:30N 49°10' W 122°55'0 0.0
2017-Dec-09 01:00N 49°10' W 122°55'0 0.0
2017-Dec-09 00:30N 49°10' W 122°55'0 0.0
2017-Dec-09 00:00N 49°10' W 122°55'0 0.0
2017-Dec-08 23:31N 49°10' W 122°55'0 0.0
2017-Dec-08 23:01N 49°10' W 122°55'0 0.0
2017-Dec-08 22:30N 49°10' W 122°55'0 0.0
2017-Dec-08 22:01N 49°10' W 122°55'0 0.0
2017-Dec-08 21:31N 49°10' W 122°55'0 0.0
2017-Dec-08 21:01N 49°10' W 122°55'0 0.0
2017-Dec-08 20:30N 49°10' W 122°55'0 0.0
2017-Dec-08 20:01N 49°10' W 122°55'1 2.2
2017-Dec-08 19:30N 49°10' W 122°57'4 7.3
2017-Dec-08 19:00N 49°09' W 123°02'0 0.2
2017-Dec-08 18:30N 49°09' W 123°02'0 0.2
2017-Dec-08 18:00N 49°09' W 123°02'2 3.9
2017-Dec-08 17:31N 49°07' W 123°05'1 1.4
2017-Dec-08 17:01N 49°07' W 123°06'0 0.2
2017-Dec-08 16:22N 49°07' W 123°05'0 0.7
2017-Dec-08 16:01N 49°07' W 123°05'3 5.6
2017-Dec-08 15:30N 49°07' W 123°09'3 6.5
2017-Dec-08 15:00N 49°08' W 123°14'3 6.5
2017-Dec-08 14:31N 49°06' W 123°18'2 3.3
2017-Dec-08 14:00N 49°06' W 123°21'2 3.1
2017-Dec-08 13:31N 49°06' W 123°23'2 3.4
2017-Dec-08 12:54N 49°08' W 123°23'2 4.6
2017-Dec-08 12:31N 49°10' W 123°23'2 4.4
2017-Dec-08 12:01N 49°12' W 123°22'3 5.1
2017-Dec-08 11:31N 49°15' W 123°21'3 5.0
2017-Dec-08 11:00N 49°17' W 123°20'2 5.0
2017-Dec-08 10:30N 49°19' W 123°17'3 5.8
2017-Dec-08 10:00N 49°19' W 123°12'3 6.1
2017-Dec-08 09:30N 49°19' W 123°08'1 2.4
2017-Dec-08 09:00N 49°18' W 123°06'0 0.3
2017-Dec-08 08:31N 49°18' W 123°06'1 1.1
2017-Dec-08 08:01N 49°18' W 123°07'3 6.9
2017-Dec-08 07:31N 49°19' W 123°12'4 8.7
2017-Dec-08 07:00N 49°17' W 123°18'4 8.8
2017-Dec-08 06:31N 49°12' W 123°20'4 8.4
2017-Dec-08 06:00N 49°08' W 123°20'2 4.9
2017-Dec-08 05:30N 49°07' W 123°17'4 8.2
2017-Dec-08 05:01N 49°07' W 123°11'4 6.8
2017-Dec-08 04:29N 49°07' W 123°06'0 0.1
2017-Dec-08 04:01N 49°07' W 123°05'2 4.6
2017-Dec-08 03:30N 49°09' W 123°03'4 6.8
2017-Dec-08 02:56N 49°10' W 122°57'0 0.0
2017-Dec-08 02:30N 49°10' W 122°57'1 1.4
2017-Dec-08 02:00N 49°09' W 122°58'1 3.0
2017-Dec-08 01:31N 49°09' W 123°00'1 2.7
2017-Dec-08 01:00N 49°09' W 123°02'2 3.4
2017-Dec-08 00:31N 49°08' W 123°04'2 3.0
2017-Dec-08 00:00N 49°07' W 123°06'2 3.1
2017-Dec-07 23:29N 49°06' W 123°08'1 2.9
2017-Dec-07 23:00N 49°07' W 123°10'1 2.7
2017-Dec-07 22:30N 49°07' W 123°12'2 3.2
2017-Dec-07 22:01N 49°08' W 123°15'3 4.9
2017-Dec-07 21:27N 49°06' W 123°18'4 7.6
2017-Dec-07 20:53N 49°06' W 123°25'2 4.3
2017-Dec-07 20:22N 49°08' W 123°26'2 4.2
2017-Dec-07 20:00N 49°10' W 123°27'2 4.0
2017-Dec-07 19:30N 49°12' W 123°27'2 3.4
2017-Dec-07 18:58N 49°14' W 123°27'2 4.2
2017-Dec-07 18:30N 49°16' W 123°27'2 4.7
2017-Dec-07 18:00N 49°18' W 123°27'2 4.6
2017-Dec-07 17:30N 49°20' W 123°27'4 4.5
2017-Dec-07 16:32N 49°24' W 123°26'0 4.7
2017-Dec-07 16:29N 49°25' W 123°26'2 4.5
2017-Dec-07 16:00N 49°26' W 123°28'2 4.6
2017-Dec-07 15:30N 49°29' W 123°28'3 4.9
2017-Dec-07 14:59N 49°31' W 123°29'0 0.0
2017-Dec-07 14:31N 49°31' W 123°29'0 0.0
2017-Dec-07 14:00N 49°31' W 123°29'0 0.0
2017-Dec-07 13:29N 49°31' W 123°29'0 0.0
2017-Dec-07 13:00N 49°31' W 123°29'0 0.0
2017-Dec-07 12:30N 49°31' W 123°29'0 0.0
2017-Dec-07 12:00N 49°31' W 123°29'0 0.0
2017-Dec-07 11:30N 49°31' W 123°29'0 0.6
2017-Dec-07 11:00N 49°31' W 123°29'2 3.3
2017-Dec-07 10:30N 49°29' W 123°28'3 5.1
2017-Dec-07 10:01N 49°27' W 123°27'2 4.8
2017-Dec-07 09:30N 49°25' W 123°26'2 4.2
2017-Dec-07 09:00N 49°23' W 123°26'3 6.5
2017-Dec-07 08:31N 49°19' W 123°27'4 7.0
2017-Dec-07 08:01N 49°16' W 123°27'3 6.7
2017-Dec-07 07:30N 49°13' W 123°27'3 6.0
2017-Dec-07 06:58N 49°10' W 123°24'3 6.1
2017-Dec-07 06:30N 49°08' W 123°21'2 4.0
2017-Dec-07 06:00N 49°06' W 123°19'4 8.7
2017-Dec-07 05:30N 49°08' W 123°13'5 9.1
2017-Dec-07 05:00N 49°07' W 123°06'4 8.5
2017-Dec-07 04:30N 49°09' W 123°01'3 5.7
2017-Dec-07 04:00N 49°10' W 122°57'0 0.1
2017-Dec-07 03:30N 49°10' W 122°57'0 0.0
2017-Dec-07 03:00N 49°10' W 122°57'0 0.0
2017-Dec-07 02:30N 49°10' W 122°57'0 0.0
2017-Dec-07 01:53N 49°10' W 122°57'0 0.0
2017-Dec-07 01:31N 49°10' W 122°57'1 1.3
2017-Dec-07 01:00N 49°09' W 122°58'2 3.2
2017-Dec-07 00:30N 49°09' W 123°00'3 5.6
2017-Dec-07 00:00N 49°08' W 123°04'3 5.4
2017-Dec-06 23:29N 49°06' W 123°08'2 5.1
2017-Dec-06 23:00N 49°07' W 123°11'2 4.8
2017-Dec-06 22:30N 49°08' W 123°15'3 5.6
2017-Dec-06 21:59N 49°06' W 123°19'3 6.1
2017-Dec-06 21:30N 49°05' W 123°23'4 6.4
2017-Dec-06 20:55N 49°03' W 123°28'  

Dump ship's entire track history